HAF212 LGSA-LGSA
Flight info
| Callsign | HAF212 |
|---|---|
| Flight time | 0h 14m |
| Altitude | 2500 |
| Route | LOCAL FLIGHT |
| Aircraft | CL41/M-GPS/C |
Departure
| Time | 2026-05-05 19:55 |
|---|---|
| Airport | Chania International Airport (LGSA) |
Arrival
| Time | 2026-05-05 20:10 |
|---|---|
| Airport | Chania International Airport (LGSA) |
| Time | Latitude | Longitude | Altitude | Speed | Heading |
|---|---|---|---|---|---|
| 2026-05-05 19:39 | 35.53704 | 24.14494 | 489 ft | 0 kts | 112° |
| 2026-05-05 19:51 | 35.53702 | 24.14498 | 487 ft | 1 kts | 120° |
| 2026-05-05 19:51 | 35.53696 | 24.14502 | 493 ft | 2 kts | 239° |
| 2026-05-05 19:51 | 35.53708 | 24.14417 | 495 ft | 18 kts | 290° |
| 2026-05-05 19:52 | 35.53692 | 24.14345 | 491 ft | 1 kts | 226° |
| 2026-05-05 19:52 | 35.53620 | 24.14351 | 490 ft | 21 kts | 167° |
| 2026-05-05 19:52 | 35.53511 | 24.14535 | 495 ft | 27 kts | 114° |
| 2026-05-05 19:52 | 35.53496 | 24.14579 | 494 ft | 0 kts | 112° |
| 2026-05-05 19:53 | 35.53449 | 24.14722 | 492 ft | 30 kts | 111° |
| 2026-05-05 19:53 | 35.53357 | 24.14998 | 486 ft | 39 kts | 112° |
| 2026-05-05 19:53 | 35.53245 | 24.15328 | 491 ft | 44 kts | 112° |
| 2026-05-05 19:53 | 35.53130 | 24.15685 | 492 ft | 46 kts | 111° |
| 2026-05-05 19:54 | 35.53043 | 24.15959 | 492 ft | 15 kts | 122° |
| 2026-05-05 19:54 | 35.52949 | 24.15977 | 494 ft | 15 kts | 204° |
| 2026-05-05 19:54 | 35.52891 | 24.15873 | 492 ft | 22 kts | 288° |
| 2026-05-05 19:54 | 35.53029 | 24.15445 | 485 ft | 82 kts | 292° |
| 2026-05-05 19:55 | 35.53241 | 24.14738 | 534 ft | 92 kts | 289° |
| 2026-05-05 19:55 | 35.53488 | 24.13928 | 677 ft | 105 kts | 295° |
| 2026-05-05 19:55 | 35.53750 | 24.13130 | 989 ft | 102 kts | 292° |
| 2026-05-05 19:55 | 35.53969 | 24.12310 | 1298 ft | 99 kts | 286° |
| 2026-05-05 19:56 | 35.54136 | 24.11482 | 1579 ft | 103 kts | 284° |
| 2026-05-05 19:56 | 35.54317 | 24.10627 | 1804 ft | 105 kts | 282° |
| 2026-05-05 19:56 | 35.54470 | 24.09780 | 2130 ft | 99 kts | 276° |
| 2026-05-05 19:56 | 35.54519 | 24.08912 | 2427 ft | 103 kts | 275° |
| 2026-05-05 19:57 | 35.54498 | 24.07996 | 2618 ft | 111 kts | 266° |
| 2026-05-05 19:57 | 35.54367 | 24.07031 | 2681 ft | 118 kts | 254° |
| 2026-05-05 19:57 | 35.53966 | 24.06136 | 2678 ft | 123 kts | 237° |
| 2026-05-05 19:57 | 35.53455 | 24.05306 | 2738 ft | 120 kts | 241° |
| 2026-05-05 19:58 | 35.53291 | 24.04337 | 2836 ft | 117 kts | 277° |
| 2026-05-05 19:58 | 35.53656 | 24.03474 | 2942 ft | 120 kts | 324° |
| 2026-05-05 19:58 | 35.54360 | 24.04013 | 2802 ft | 145 kts | 61° |
| 2026-05-05 19:58 | 35.54387 | 24.05159 | 2970 ft | 136 kts | 119° |
| 2026-05-05 19:59 | 35.53704 | 24.05945 | 2961 ft | 139 kts | 152° |
| 2026-05-05 19:59 | 35.52835 | 24.06488 | 2927 ft | 142 kts | 163° |
| 2026-05-05 19:59 | 35.51886 | 24.06909 | 2853 ft | 146 kts | 164° |
| 2026-05-05 19:59 | 35.50932 | 24.07375 | 2776 ft | 150 kts | 155° |
| 2026-05-05 20:00 | 35.50172 | 24.08189 | 2845 ft | 144 kts | 130° |
| 2026-05-05 20:00 | 35.49579 | 24.09166 | 2936 ft | 140 kts | 130° |
| 2026-05-05 20:00 | 35.48946 | 24.10089 | 2989 ft | 142 kts | 134° |
| 2026-05-05 20:00 | 35.48490 | 24.11121 | 3094 ft | 142 kts | 98° |
| 2026-05-05 20:01 | 35.48801 | 24.12233 | 3115 ft | 142 kts | 31° |
| 2026-05-05 20:01 | 35.49666 | 24.12050 | 3100 ft | 130 kts | 315° |
| 2026-05-05 20:01 | 35.50166 | 24.11160 | 3117 ft | 129 kts | 294° |
| 2026-05-05 20:01 | 35.50462 | 24.10155 | 3193 ft | 126 kts | 279° |
| 2026-05-05 20:02 | 35.50284 | 24.09108 | 3181 ft | 132 kts | 232° |
| 2026-05-05 20:02 | 35.49400 | 24.08756 | 3036 ft | 146 kts | 174° |
| 2026-05-05 20:02 | 35.48417 | 24.09011 | 3017 ft | 145 kts | 167° |
| 2026-05-05 20:02 | 35.47879 | 24.09979 | 3036 ft | 147 kts | 92° |
| 2026-05-05 20:03 | 35.47886 | 24.11228 | 3067 ft | 146 kts | 89° |
| 2026-05-05 20:03 | 35.47816 | 24.12455 | 3029 ft | 139 kts | 101° |
| 2026-05-05 20:03 | 35.47664 | 24.13585 | 2810 ft | 130 kts | 99° |
| 2026-05-05 20:03 | 35.47599 | 24.14651 | 2598 ft | 125 kts | 84° |
| 2026-05-05 20:04 | 35.47727 | 24.15691 | 2421 ft | 124 kts | 70° |
| 2026-05-05 20:04 | 35.48010 | 24.16699 | 2318 ft | 126 kts | 69° |
| 2026-05-05 20:04 | 35.48400 | 24.17671 | 1939 ft | 130 kts | 47° |
| 2026-05-05 20:04 | 35.48993 | 24.18434 | 1884 ft | 97 kts | 68° |
| 2026-05-05 20:05 | 35.48677 | 24.19136 | 2037 ft | 122 kts | 159° |
| 2026-05-05 20:05 | 35.47940 | 24.19727 | 2069 ft | 124 kts | 149° |
| 2026-05-05 20:05 | 35.47229 | 24.20330 | 2056 ft | 125 kts | 145° |
| 2026-05-05 20:05 | 35.46753 | 24.21206 | 2086 ft | 129 kts | 103° |
| 2026-05-05 20:06 | 35.46712 | 24.22331 | 2024 ft | 132 kts | 83° |
| 2026-05-05 20:06 | 35.46919 | 24.23384 | 2020 ft | 125 kts | 50° |
| 2026-05-05 20:06 | 35.47619 | 24.23878 | 2043 ft | 117 kts | 14° |
| 2026-05-05 20:06 | 35.48393 | 24.24192 | 2066 ft | 117 kts | 358° |
| 2026-05-05 20:07 | 35.49150 | 24.23974 | 2025 ft | 112 kts | 322° |
| 2026-05-05 20:07 | 35.49807 | 24.23451 | 1935 ft | 112 kts | 319° |
| 2026-05-05 20:07 | 35.50341 | 24.22810 | 1750 ft | 107 kts | 307° |
| 2026-05-05 20:07 | 35.50758 | 24.22057 | 1538 ft | 106 kts | 297° |
| 2026-05-05 20:08 | 35.51095 | 24.21262 | 1377 ft | 104 kts | 289° |
| 2026-05-05 20:08 | 35.51377 | 24.20460 | 1268 ft | 101 kts | 295° |
| 2026-05-05 20:08 | 35.51645 | 24.19649 | 1156 ft | 104 kts | 289° |
| 2026-05-05 20:08 | 35.51907 | 24.18817 | 1007 ft | 106 kts | 291° |
| 2026-05-05 20:09 | 35.52180 | 24.17993 | 778 ft | 104 kts | 293° |
| 2026-05-05 20:09 | 35.52446 | 24.17175 | 598 ft | 102 kts | 294° |
| 2026-05-05 20:09 | 35.52694 | 24.16424 | 492 ft | 77 kts | 292° |
| 2026-05-05 20:09 | 35.52865 | 24.15918 | 489 ft | 56 kts | 291° |
| 2026-05-05 20:10 | 35.53024 | 24.15439 | 481 ft | 65 kts | 292° |
| 2026-05-05 20:10 | 35.53182 | 24.14954 | 483 ft | 52 kts | 293° |
| 2026-05-05 20:10 | 35.53310 | 24.14571 | 487 ft | 47 kts | 291° |
| 2026-05-05 20:10 | 35.53426 | 24.14210 | 491 ft | 45 kts | 290° |
| 2026-05-05 20:11 | 35.53526 | 24.13913 | 490 ft | 28 kts | 290° |
| 2026-05-05 20:11 | 35.53597 | 24.13689 | 489 ft | 29 kts | 295° |
| 2026-05-05 20:11 | 35.53665 | 24.13525 | 495 ft | 19 kts | 302° |
| 2026-05-05 20:11 | 35.53785 | 24.13493 | 496 ft | 26 kts | 30° |
| 2026-05-05 20:12 | 35.53803 | 24.13626 | 494 ft | 5 kts | 110° |
| 2026-05-05 20:12 | 35.53800 | 24.13635 | 496 ft | 0 kts | 110° |
| 2026-05-05 20:12 | 35.53800 | 24.13636 | 496 ft | 1 kts | 110° |
| 2026-05-05 20:12 | 35.53777 | 24.13712 | 488 ft | 15 kts | 111° |
| 2026-05-05 20:13 | 35.53747 | 24.13813 | 490 ft | 8 kts | 105° |
| 2026-05-05 20:13 | 35.53721 | 24.13939 | 493 ft | 17 kts | 85° |
| 2026-05-05 20:13 | 35.53763 | 24.14128 | 492 ft | 31 kts | 109° |
| 2026-05-05 20:13 | 35.53691 | 24.14363 | 490 ft | 18 kts | 111° |
| 2026-05-05 20:14 | 35.52625 | 24.16637 | 496 ft | 0 kts | 290° |